Time;durP1;ratioP1;P1;durP2;ratioP2;P2;SDS_P1;SDS_P2;PMS_P1;PMS_P2;Temp;Humidity;BMP_temperature;BMP_pressure;BME280_temperature;BME280_humidity;BME280_pressure;Samples;Min_cycle;Max_cycle;Signal;HPM_P1;HPM_P2
2022/06/16 00:06:33;;;;;;;;;;;31.40;25.80;;;;;;21161621;28;19912;-64
2022/06/16 00:16:35;;;;;;;;;;;31.30;26.10;;;;;;21162749;28;19924;-65
2022/06/16 00:26:36;;;;;;;;;;;31.30;26.20;;;;;;21161912;28;19931;-66
2022/06/16 00:36:38;;;;;;;;;;;31.10;26.70;;;;;;21162623;28;19924;-67
2022/06/16 00:46:40;;;;;;;;;;;31.10;27.10;;;;;;21161529;28;19924;-66
2022/06/16 00:56:41;;;;;;;;;;;31.00;27.20;;;;;;21161491;28;19924;-67
2022/06/16 01:06:44;;;;;;;;;;;31.00;27.30;;;;;;21161548;28;20375;-64
2022/06/16 01:16:47;;;;;;;;;;;30.90;27.60;;;;;;21166270;28;20395;-65
2022/06/16 01:26:59;;;;;;;;;;;30.60;30.40;;;;;;21176192;28;20077;-65
2022/06/16 01:37:23;;;;;;;;;;;30.10;31.70;;;;;;21174325;28;20017;-66
2022/06/16 01:47:30;;;;;;;;;;;30.00;32.90;;;;;;21174831;28;20394;-65
2022/06/16 01:57:37;;;;;;;;;;;30.00;32.20;;;;;;21174737;28;20002;-64
2022/06/16 02:07:47;;;;;;;;;;;30.10;32.30;;;;;;21172714;28;19924;-64
2022/06/16 02:17:49;;;;;;;;;;;30.10;34.30;;;;;;21171093;28;19930;-65
2022/06/16 02:27:52;;;;;;;;;;;29.50;36.70;;;;;;21169445;28;20350;-65
2022/06/16 02:38:07;;;;;;;;;;;29.30;36.20;;;;;;21169045;28;19969;-65
2022/06/16 02:48:13;;;;;;;;;;;29.40;34.80;;;;;;21168512;28;19924;-64
2022/06/16 02:58:16;;;;;;;;;;;29.50;34.60;;;;;;21167637;28;20284;-64
2022/06/16 03:08:17;;;;;;;;;;;29.60;34.50;;;;;;21167607;28;19923;-66
2022/06/16 03:18:20;;;;;;;;;;;29.60;34.80;;;;;;21166130;28;19928;-66
2022/06/16 03:28:21;;;;;;;;;;;29.60;34.80;;;;;;21166197;28;19924;-64
2022/06/16 03:48:24;;;;;;;;;;;29.30;35.40;;;;;;21171484;28;19934;-66
2022/06/16 03:58:26;;;;;;;;;;;29.20;35.20;;;;;;21164449;28;20016;-65
2022/06/16 04:08:28;;;;;;;;;;;29.10;34.50;;;;;;21162841;28;19924;-63
2022/06/16 04:18:30;;;;;;;;;;;29.10;33.30;;;;;;21162153;28;19923;-67
2022/06/16 04:28:32;;;;;;;;;;;29.00;33.20;;;;;;21162457;28;19931;-67
2022/06/16 04:38:35;;;;;;;;;;;29.00;33.20;;;;;;21143668;28;19930;-65
2022/06/16 04:48:43;;;;;;;;;;;28.90;33.30;;;;;;21162579;28;20088;-68
2022/06/16 04:58:45;;;;;;;;;;;29.00;33.30;;;;;;21177805;28;19924;-66
2022/06/16 05:08:48;;;;;;;;;;;29.00;33.30;;;;;;21199555;28;19927;-64
2022/06/16 05:18:51;;;;;;;;;;;28.90;33.40;;;;;;21215898;28;19930;-65
2022/06/16 05:28:52;;;;;;;;;;;29.00;33.30;;;;;;21176326;28;19951;-65
2022/06/16 05:38:54;;;;;;;;;;;29.00;33.40;;;;;;21156554;28;19931;-66
2022/06/16 05:48:56;;;;;;;;;;;29.20;33.40;;;;;;21173061;28;19927;-64
2022/06/16 05:58:58;;;;;;;;;;;29.30;33.40;;;;;;21172207;28;19970;-66
2022/06/16 06:19:26;;;;;;;;;;;29.10;34.50;;;;;;21171070;28;19935;-64
2022/06/16 06:29:28;;;;;;;;;;;29.10;35.60;;;;;;21170410;28;19932;-65
2022/06/16 06:39:30;;;;;;;;;;;29.20;35.80;;;;;;21169797;28;19931;-66
2022/06/16 06:49:31;;;;;;;;;;;29.20;36.20;;;;;;21168434;28;19931;-67
2022/06/16 06:59:33;;;;;;;;;;;29.40;36.00;;;;;;21167692;28;20432;-66
2022/06/16 07:09:34;;;;;;;;;;;29.50;36.60;;;;;;21167322;28;19923;-66
2022/06/16 07:19:36;;;;;;;;;;;29.50;36.10;;;;;;21191379;27;20324;-68
2022/06/16 07:29:38;;;;;;;;;;;29.70;35.80;;;;;;21250541;27;20379;-69
2022/06/16 07:39:40;;;;;;;;;;;30.00;35.00;;;;;;21249880;27;19923;-66
2022/06/16 07:49:43;;;;;;;;;;;30.40;34.60;;;;;;21249849;27;20331;-66
2022/06/16 07:59:48;;;;;;;;;;;30.70;33.90;;;;;;21249081;27;19924;-68
2022/06/16 08:09:50;;;;;;;;;;;31.20;33.90;;;;;;21248434;28;20010;-68
2022/06/16 08:19:53;;;;;;;;;;;31.60;33.70;;;;;;21247564;28;20394;-68
2022/06/16 08:29:54;;;;;;;;;;;31.90;33.00;;;;;;21259028;27;19933;-68
2022/06/16 08:39:56;;;;;;;;;;;32.30;32.40;;;;;;21265056;27;20010;-67
2022/06/16 08:50:10;;;;;;;;;;;32.50;32.00;;;;;;21265473;27;19959;-67
2022/06/16 09:00:15;;;;;;;;;;;33.30;30.70;;;;;;21262431;27;20283;-67
2022/06/16 09:10:23;;;;;;;;;;;33.20;30.60;;;;;;21262623;27;19927;-67
2022/06/16 09:20:40;;;;;;;;;;;33.50;29.90;;;;;;21264144;27;19924;-68
2022/06/16 09:30:43;;;;;;;;;;;33.70;29.20;;;;;;21260575;27;19923;-63
2022/06/16 09:40:56;;;;;;;;;;;34.00;28.80;;;;;;21256003;27;19937;-60
2022/06/16 09:51:19;;;;;;;;;;;34.10;28.60;;;;;;21248614;27;19930;-65
2022/06/16 10:01:23;;;;;;;;;;;34.10;29.20;;;;;;21214023;27;19924;-70
2022/06/16 10:11:36;;;;;;;;;;;34.30;28.40;;;;;;21226971;27;19924;-72
2022/06/16 10:21:38;;;;;;;;;;;34.30;28.10;;;;;;21242703;27;20283;-70
2022/06/16 10:31:41;;;;;;;;;;;34.30;28.20;;;;;;21273275;27;19934;-72
2022/06/16 10:41:50;;;;;;;;;;;34.20;28.40;;;;;;21193437;27;20040;-76
2022/06/16 10:51:57;;;;;;;;;;;34.60;28.00;;;;;;21227007;27;19924;-60
2022/06/16 11:02:13;;;;;;;;;;;34.80;27.70;;;;;;21232866;27;20260;-67
2022/06/16 11:12:16;;;;;;;;;;;34.90;27.80;;;;;;21239768;27;19927;-68
2022/06/16 11:22:28;;;;;;;;;;;35.00;27.70;;;;;;21238662;27;19977;-66
2022/06/16 11:32:35;;;;;;;;;;;34.90;27.40;;;;;;21249000;27;20342;-65
2022/06/16 11:42:45;;;;;;;;;;;35.10;26.70;;;;;;21248522;27;19984;-62
2022/06/16 11:52:59;;;;;;;;;;;35.40;26.30;;;;;;21247506;27;19934;-61
2022/06/16 12:03:03;;;;;;;;;;;35.60;25.40;;;;;;21188536;27;19924;-70
2022/06/16 12:13:05;;;;;;;;;;;35.80;25.00;;;;;;21164431;28;20370;-72
2022/06/16 12:23:09;;;;;;;;;;;36.10;24.60;;;;;;21162299;28;19935;-70
2022/06/16 12:33:29;;;;;;;;;;;36.50;23.80;;;;;;21162888;28;19923;-71
2022/06/16 12:43:35;;;;;;;;;;;36.60;23.70;;;;;;21165536;28;20307;-75
2022/06/16 12:53:39;;;;;;;;;;;36.70;22.40;;;;;;21167153;28;19934;-72
2022/06/16 13:03:43;;;;;;;;;;;36.80;23.00;;;;;;21163369;28;20283;-69
2022/06/16 13:13:46;;;;;;;;;;;;;;;;;;21151542;28;19977;-71
2022/06/16 13:23:55;;;;;;;;;;;37.20;22.20;;;;;;21177235;28;19923;-73
2022/06/16 13:33:57;;;;;;;;;;;37.00;22.40;;;;;;21174342;28;19979;-72
2022/06/16 13:44:29;;;;;;;;;;;37.20;21.90;;;;;;21175767;28;19924;-72
2022/06/16 13:54:34;;;;;;;;;;;;;;;;;;20997102;28;19936;-69
2022/06/16 14:04:49;;;;;;;;;;;37.60;21.90;;;;;;20995929;28;20397;-76
2022/06/16 14:14:55;;;;;;;;;;;37.90;21.70;;;;;;21035514;28;19925;-75
2022/06/16 14:25:11;;;;;;;;;;;37.90;21.70;;;;;;21048381;28;19953;-79
2022/06/16 14:35:16;;;;;;;;;;;38.10;21.60;;;;;;21172143;28;19946;-71
2022/06/16 14:45:24;;;;;;;;;;;38.10;21.40;;;;;;21169533;28;20306;-76
2022/06/16 14:55:29;;;;;;;;;;;37.70;21.60;;;;;;21169478;28;19931;-75
2022/06/16 15:05:34;;;;;;;;;;;37.90;21.20;;;;;;21167165;28;19923;-69
2022/06/16 15:15:36;;;;;;;;;;;38.20;21.00;;;;;;21167771;28;19924;-74
2022/06/16 15:25:44;;;;;;;;;;;38.30;20.30;;;;;;21165691;28;19927;-72
2022/06/16 15:46:09;;;;;;;;;;;37.70;20.10;;;;;;21242149;27;19968;-76
2022/06/16 15:56:11;;;;;;;;;;;37.30;20.20;;;;;;21249694;27;19947;-75
2022/06/16 16:06:13;;;;;;;;;;;37.30;20.10;;;;;;21249920;27;19929;-74
2022/06/16 16:16:15;;;;;;;;;;;37.20;20.60;;;;;;21251941;27;19924;-77
2022/06/16 16:26:18;;;;;;;;;;;37.20;20.40;;;;;;21248939;28;19927;-76
2022/06/16 16:36:20;;;;;;;;;;;37.20;20.40;;;;;;21247901;28;20015;-74
2022/06/16 16:46:29;;;;;;;;;;;37.20;20.60;;;;;;21252196;27;19923;-74
2022/06/16 16:56:38;;;;;;;;;;;37.30;20.30;;;;;;21245187;27;19931;-75
2022/06/16 17:06:40;;;;;;;;;;;37.30;19.70;;;;;;21264574;27;19923;-74
2022/06/16 17:16:42;;;;;;;;;;;37.20;20.10;;;;;;21265315;27;19930;-76
2022/06/16 17:26:44;;;;;;;;;;;36.90;20.10;;;;;;21261079;27;20310;-74
2022/06/16 17:36:46;;;;;;;;;;;36.90;20.00;;;;;;21259763;27;19976;-75
2022/06/16 17:46:47;;;;;;;;;;;36.70;19.80;;;;;;21240993;27;19931;-74
2022/06/16 18:07:09;;;;;;;;;;;;;;;;;;21257643;27;20279;-72
2022/06/16 18:17:11;;;;;;;;;;;35.40;24.40;;;;;;21257187;27;19924;-76
2022/06/16 18:27:14;;;;;;;;;;;34.30;24.90;;;;;;21255626;27;19927;-60
2022/06/16 18:37:15;;;;;;;;;;;33.20;27.40;;;;;;21250519;27;20319;-63
2022/06/16 18:47:18;;;;;;;;;;;32.40;27.60;;;;;;21254378;27;19927;-64
2022/06/16 18:57:21;;;;;;;;;;;32.20;27.80;;;;;;21253959;27;19924;-62
2022/06/16 19:07:23;;;;;;;;;;;32.20;28.80;;;;;;21251349;27;19927;-66
2022/06/16 19:17:32;;;;;;;;;;;32.00;30.00;;;;;;21251413;27;19930;-69
2022/06/16 19:27:34;;;;;;;;;;;32.10;30.80;;;;;;21250995;27;20402;-70
2022/06/16 19:37:36;;;;;;;;;;;32.00;29.60;;;;;;21251979;27;19977;-66
2022/06/16 19:57:58;;;;;;;;;;;32.20;29.00;;;;;;21248463;27;19975;-66
2022/06/16 20:08:00;;;;;;;;;;;32.00;28.80;;;;;;21248181;27;20301;-66
2022/06/16 20:18:03;;;;;;;;;;;31.80;30.40;;;;;;21247856;27;19966;-66
2022/06/16 20:28:05;;;;;;;;;;;31.30;32.00;;;;;;21265864;27;19976;-66
2022/06/16 20:38:07;;;;;;;;;;;31.00;32.90;;;;;;21265641;27;19931;-65
2022/06/16 20:48:12;;;;;;;;;;;30.50;34.20;;;;;;21267322;27;20295;-66
2022/06/16 21:08:35;;;;;;;;;;;30.10;35.20;;;;;;21267790;27;20014;-65
2022/06/16 21:18:37;;;;;;;;;;;29.90;35.50;;;;;;21266507;27;19930;-65
2022/06/16 21:28:39;;;;;;;;;;;29.80;35.20;;;;;;21261745;27;19971;-65
2022/06/16 21:38:41;;;;;;;;;;;29.70;35.10;;;;;;21260071;27;20269;-67
2022/06/16 21:48:44;;;;;;;;;;;29.60;35.20;;;;;;21259466;27;19923;-64
2022/06/16 21:58:46;;;;;;;;;;;29.70;34.40;;;;;;21260695;27;20014;-65
2022/06/16 22:08:48;;;;;;;;;;;29.80;33.70;;;;;;21260642;27;20048;-65
2022/06/16 22:18:50;;;;;;;;;;;29.70;33.90;;;;;;21258339;27;20306;-63
2022/06/16 22:28:55;;;;;;;;;;;29.70;33.80;;;;;;21257978;27;20019;-66
2022/06/16 22:38:57;;;;;;;;;;;29.70;34.40;;;;;;21255502;27;19986;-64
2022/06/16 22:48:59;;;;;;;;;;;29.50;35.60;;;;;;21253896;27;20291;-65
2022/06/16 22:59:00;;;;;;;;;;;29.20;36.10;;;;;;21253672;27;20030;-65
2022/06/16 23:09:03;;;;;;;;;;;28.90;37.00;;;;;;21254307;27;19966;-65
2022/06/16 23:19:08;;;;;;;;;;;28.60;37.80;;;;;;21252394;27;20371;-70
2022/06/16 23:29:11;;;;;;;;;;;28.30;39.00;;;;;;21251616;27;20213;-66
2022/06/16 23:39:14;;;;;;;;;;;28.20;39.20;;;;;;21254055;27;19924;-68
2022/06/16 23:49:17;;;;;;;;;;;28.10;39.10;;;;;;21251228;27;19923;-65
2022/06/16 23:59:19;;;;;;;;;;;28.00;39.40;;;;;;21248613;27;19927;-66
